sensor_id;sensor_type;location;lat;lon;timestamp;P1;durP1;ratioP1;P2;durP2;ratioP2
84351;SDS011;75904;43.524;1.518;2024-01-30T12:55:10;8.38;;;3.72;;
84351;SDS011;75904;43.524;1.518;2024-01-30T12:57:36;7.78;;;2.65;;
84351;SDS011;75904;43.524;1.518;2024-01-30T13:00:01;9.20;;;3.50;;
84351;SDS011;75904;43.524;1.518;2024-01-30T13:02:29;11.20;;;3.65;;
84351;SDS011;75904;43.524;1.518;2024-01-30T13:04:59;10.57;;;3.95;;
84351;SDS011;75904;43.524;1.518;2024-01-30T13:07:25;8.95;;;2.83;;
84351;SDS011;75904;43.524;1.518;2024-01-30T13:09:50;7.75;;;2.90;;
84351;SDS011;75904;43.524;1.518;2024-01-30T13:12:16;7.57;;;2.30;;
84351;SDS011;75904;43.524;1.518;2024-01-30T13:14:41;9.35;;;2.80;;
84351;SDS011;75904;43.524;1.518;2024-01-30T13:17:07;8.50;;;2.88;;
84351;SDS011;75904;43.524;1.518;2024-01-30T13:19:33;9.82;;;3.10;;
84351;SDS011;75904;43.524;1.518;2024-01-30T13:21:59;6.38;;;2.30;;
84351;SDS011;75904;43.524;1.518;2024-01-30T13:24:24;4.45;;;2.50;;
84351;SDS011;75904;43.524;1.518;2024-01-30T13:26:50;7.93;;;2.67;;
84351;SDS011;75904;43.524;1.518;2024-01-30T13:29:15;6.93;;;2.80;;
84351;SDS011;75904;43.524;1.518;2024-01-30T13:31:40;9.23;;;2.97;;
84351;SDS011;75904;43.524;1.518;2024-01-30T13:34:06;7.45;;;2.80;;
84351;SDS011;75904;43.524;1.518;2024-01-30T13:36:32;9.43;;;2.88;;
84351;SDS011;75904;43.524;1.518;2024-01-30T13:38:57;6.93;;;2.45;;
84351;SDS011;75904;43.524;1.518;2024-01-30T13:41:23;7.05;;;2.90;;
84351;SDS011;75904;43.524;1.518;2024-01-30T13:43:48;12.50;;;3.28;;
84351;SDS011;75904;43.524;1.518;2024-01-30T13:46:14;7.65;;;3.00;;
84351;SDS011;75904;43.524;1.518;2024-01-30T13:48:40;10.27;;;4.18;;
84351;SDS011;75904;43.524;1.518;2024-01-30T13:51:05;9.98;;;4.68;;
84351;SDS011;75904;43.524;1.518;2024-01-30T13:53:30;7.68;;;3.35;;
84351;SDS011;75904;43.524;1.518;2024-01-30T13:55:56;6.55;;;3.75;;
84351;SDS011;75904;43.524;1.518;2024-01-30T13:58:21;7.13;;;3.22;;
84351;SDS011;75904;43.524;1.518;2024-01-30T14:00:47;6.53;;;2.80;;
84351;SDS011;75904;43.524;1.518;2024-01-30T14:03:12;10.52;;;3.72;;
84351;SDS011;75904;43.524;1.518;2024-01-30T14:05:37;9.50;;;3.08;;
84351;SDS011;75904;43.524;1.518;2024-01-30T14:08:03;9.57;;;2.90;;
84351;SDS011;75904;43.524;1.518;2024-01-30T14:10:29;11.77;;;3.40;;
84351;SDS011;75904;43.524;1.518;2024-01-30T14:12:54;7.57;;;2.65;;
84351;SDS011;75904;43.524;1.518;2024-01-30T14:15:21;8.35;;;2.80;;
84351;SDS011;75904;43.524;1.518;2024-01-30T14:17:47;8.07;;;2.63;;
84351;SDS011;75904;43.524;1.518;2024-01-30T14:20:13;7.82;;;2.55;;
84351;SDS011;75904;43.524;1.518;2024-01-30T14:22:39;10.70;;;3.20;;
84351;SDS011;75904;43.524;1.518;2024-01-30T14:25:04;10.13;;;2.90;;
84351;SDS011;75904;43.524;1.518;2024-01-30T14:27:30;7.90;;;3.08;;
84351;SDS011;75904;43.524;1.518;2024-01-30T14:29:57;9.13;;;2.80;;
84351;SDS011;75904;43.524;1.518;2024-01-30T14:32:23;6.38;;;2.50;;
84351;SDS011;75904;43.524;1.518;2024-01-30T14:34:49;8.00;;;2.90;;
84351;SDS011;75904;43.524;1.518;2024-01-30T14:37:15;9.68;;;2.78;;
84351;SDS011;75904;43.524;1.518;2024-01-30T14:39:41;11.23;;;2.97;;
84351;SDS011;75904;43.524;1.518;2024-01-30T14:42:07;9.85;;;3.28;;
84351;SDS011;75904;43.524;1.518;2024-01-30T14:44:32;8.82;;;2.75;;
84351;SDS011;75904;43.524;1.518;2024-01-30T14:46:58;5.50;;;2.60;;
84351;SDS011;75904;43.524;1.518;2024-01-30T14:49:24;5.30;;;2.40;;
84351;SDS011;75904;43.524;1.518;2024-01-30T14:51:50;10.55;;;3.20;;
84351;SDS011;75904;43.524;1.518;2024-01-30T14:54:15;7.15;;;2.47;;
84351;SDS011;75904;43.524;1.518;2024-01-30T14:56:40;7.70;;;2.72;;
84351;SDS011;75904;43.524;1.518;2024-01-30T14:59:06;9.18;;;3.42;;
84351;SDS011;75904;43.524;1.518;2024-01-30T15:01:31;7.40;;;3.38;;
84351;SDS011;75904;43.524;1.518;2024-01-30T15:03:56;11.13;;;4.05;;
84351;SDS011;75904;43.524;1.518;2024-01-30T15:06:22;14.93;;;4.22;;
84351;SDS011;75904;43.524;1.518;2024-01-30T15:08:49;9.77;;;3.30;;
84351;SDS011;75904;43.524;1.518;2024-01-30T15:11:15;11.27;;;4.03;;
84351;SDS011;75904;43.524;1.518;2024-01-30T15:13:40;10.48;;;4.00;;
84351;SDS011;75904;43.524;1.518;2024-01-30T15:16:06;7.68;;;2.75;;
84351;SDS011;75904;43.524;1.518;2024-01-30T15:18:31;6.78;;;2.88;;
84351;SDS011;75904;43.524;1.518;2024-01-30T15:20:57;8.45;;;2.60;;
84351;SDS011;75904;43.524;1.518;2024-01-30T15:23:22;7.30;;;2.50;;
84351;SDS011;75904;43.524;1.518;2024-01-30T15:25:47;7.40;;;2.53;;
84351;SDS011;75904;43.524;1.518;2024-01-30T15:28:13;8.85;;;2.90;;
84351;SDS011;75904;43.524;1.518;2024-01-30T15:30:39;6.43;;;2.60;;
84351;SDS011;75904;43.524;1.518;2024-01-30T15:33:08;9.65;;;3.00;;
84351;SDS011;75904;43.524;1.518;2024-01-30T15:35:34;7.78;;;3.40;;
84351;SDS011;75904;43.524;1.518;2024-01-30T15:37:59;11.80;;;3.17;;
84351;SDS011;75904;43.524;1.518;2024-01-30T15:40:25;13.25;;;5.30;;
84351;SDS011;75904;43.524;1.518;2024-01-30T15:42:50;9.55;;;3.67;;
84351;SDS011;75904;43.524;1.518;2024-01-30T15:45:15;8.40;;;3.35;;
84351;SDS011;75904;43.524;1.518;2024-01-30T15:47:41;6.25;;;2.60;;
84351;SDS011;75904;43.524;1.518;2024-01-30T15:50:07;8.60;;;3.28;;
84351;SDS011;75904;43.524;1.518;2024-01-30T15:52:34;8.55;;;2.83;;
84351;SDS011;75904;43.524;1.518;2024-01-30T15:54:59;5.68;;;2.88;;
84351;SDS011;75904;43.524;1.518;2024-01-30T15:57:24;6.80;;;2.60;;
84351;SDS011;75904;43.524;1.518;2024-01-30T15:59:50;6.60;;;3.50;;
84351;SDS011;75904;43.524;1.518;2024-01-30T16:02:15;8.32;;;3.00;;
84351;SDS011;75904;43.524;1.518;2024-01-30T16:04:40;6.90;;;2.70;;
84351;SDS011;75904;43.524;1.518;2024-01-30T16:07:06;6.38;;;2.53;;
84351;SDS011;75904;43.524;1.518;2024-01-30T16:09:31;6.57;;;2.88;;
84351;SDS011;75904;43.524;1.518;2024-01-30T16:11:57;7.65;;;2.90;;
84351;SDS011;75904;43.524;1.518;2024-01-30T16:14:23;6.68;;;2.50;;
84351;SDS011;75904;43.524;1.518;2024-01-30T16:16:48;8.07;;;2.80;;
84351;SDS011;75904;43.524;1.518;2024-01-30T16:19:13;8.57;;;2.85;;
84351;SDS011;75904;43.524;1.518;2024-01-30T16:21:39;11.88;;;3.25;;
84351;SDS011;75904;43.524;1.518;2024-01-30T16:24:04;7.68;;;2.63;;
84351;SDS011;75904;43.524;1.518;2024-01-30T16:26:30;6.45;;;2.53;;
84351;SDS011;75904;43.524;1.518;2024-01-30T16:28:55;9.70;;;2.90;;
84351;SDS011;75904;43.524;1.518;2024-01-30T16:31:21;7.63;;;2.63;;
84351;SDS011;75904;43.524;1.518;2024-01-30T16:33:46;7.88;;;3.00;;
84351;SDS011;75904;43.524;1.518;2024-01-30T16:36:15;11.15;;;2.83;;
84351;SDS011;75904;43.524;1.518;2024-01-30T16:38:41;8.30;;;2.53;;
84351;SDS011;75904;43.524;1.518;2024-01-30T16:41:07;6.32;;;2.90;;
84351;SDS011;75904;43.524;1.518;2024-01-30T16:43:33;6.28;;;2.30;;
84351;SDS011;75904;43.524;1.518;2024-01-30T16:45:58;5.88;;;2.40;;
84351;SDS011;75904;43.524;1.518;2024-01-30T16:48:24;10.15;;;3.17;;
84351;SDS011;75904;43.524;1.518;2024-01-30T16:50:51;6.60;;;2.67;;
84351;SDS011;75904;43.524;1.518;2024-01-30T16:53:16;8.55;;;3.17;;
84351;SDS011;75904;43.524;1.518;2024-01-30T16:55:42;10.60;;;3.80;;
84351;SDS011;75904;43.524;1.518;2024-01-30T16:58:07;11.43;;;5.88;;
84351;SDS011;75904;43.524;1.518;2024-01-30T17:00:34;8.13;;;2.78;;
84351;SDS011;75904;43.524;1.518;2024-01-30T17:03:00;9.02;;;3.22;;
84351;SDS011;75904;43.524;1.518;2024-01-30T17:05:25;9.57;;;3.35;;
84351;SDS011;75904;43.524;1.518;2024-01-30T17:07:51;8.95;;;3.00;;
84351;SDS011;75904;43.524;1.518;2024-01-30T17:10:16;6.32;;;2.63;;
84351;SDS011;75904;43.524;1.518;2024-01-30T17:12:42;7.43;;;2.63;;
84351;SDS011;75904;43.524;1.518;2024-01-30T17:15:08;5.57;;;2.53;;
84351;SDS011;75904;43.524;1.518;2024-01-30T17:17:34;8.13;;;2.58;;
84351;SDS011;75904;43.524;1.518;2024-01-30T17:20:00;7.45;;;2.65;;
84351;SDS011;75904;43.524;1.518;2024-01-30T17:22:25;10.80;;;2.58;;
84351;SDS011;75904;43.524;1.518;2024-01-30T17:24:51;6.43;;;3.15;;
84351;SDS011;75904;43.524;1.518;2024-01-30T17:27:16;6.32;;;2.50;;
84351;SDS011;75904;43.524;1.518;2024-01-30T17:29:41;7.82;;;2.60;;
84351;SDS011;75904;43.524;1.518;2024-01-30T17:32:07;12.00;;;2.95;;
84351;SDS011;75904;43.524;1.518;2024-01-30T17:34:32;8.10;;;3.13;;
84351;SDS011;75904;43.524;1.518;2024-01-30T17:36:58;7.93;;;3.20;;
84351;SDS011;75904;43.524;1.518;2024-01-30T17:39:23;12.75;;;4.63;;
84351;SDS011;75904;43.524;1.518;2024-01-30T17:41:48;8.02;;;3.38;;
84351;SDS011;75904;43.524;1.518;2024-01-30T17:44:16;9.77;;;3.53;;
84351;SDS011;75904;43.524;1.518;2024-01-30T17:46:42;13.50;;;5.68;;
84351;SDS011;75904;43.524;1.518;2024-01-30T17:49:07;8.75;;;3.10;;
84351;SDS011;75904;43.524;1.518;2024-01-30T17:51:33;10.02;;;3.72;;
84351;SDS011;75904;43.524;1.518;2024-01-30T17:53:59;8.55;;;3.13;;
84351;SDS011;75904;43.524;1.518;2024-01-30T17:56:24;8.07;;;3.13;;
84351;SDS011;75904;43.524;1.518;2024-01-30T17:58:49;6.80;;;2.90;;
84351;SDS011;75904;43.524;1.518;2024-01-30T18:01:16;9.65;;;3.28;;
84351;SDS011;75904;43.524;1.518;2024-01-30T18:03:41;8.77;;;2.78;;
84351;SDS011;75904;43.524;1.518;2024-01-30T18:06:06;11.05;;;2.78;;
84351;SDS011;75904;43.524;1.518;2024-01-30T18:08:32;5.60;;;2.53;;
84351;SDS011;75904;43.524;1.518;2024-01-30T18:10:58;7.05;;;2.60;;
84351;SDS011;75904;43.524;1.518;2024-01-30T18:13:23;9.57;;;2.90;;
84351;SDS011;75904;43.524;1.518;2024-01-30T18:15:49;8.73;;;2.83;;
84351;SDS011;75904;43.524;1.518;2024-01-30T18:18:14;10.13;;;3.20;;
84351;SDS011;75904;43.524;1.518;2024-01-30T18:20:40;6.95;;;2.90;;
84351;SDS011;75904;43.524;1.518;2024-01-30T18:23:06;9.63;;;2.83;;
84351;SDS011;75904;43.524;1.518;2024-01-30T18:25:32;9.25;;;3.15;;
84351;SDS011;75904;43.524;1.518;2024-01-30T18:27:57;8.82;;;3.10;;
84351;SDS011;75904;43.524;1.518;2024-01-30T18:30:23;9.55;;;3.50;;
84351;SDS011;75904;43.524;1.518;2024-01-30T18:32:49;8.05;;;2.97;;
84351;SDS011;75904;43.524;1.518;2024-01-30T18:35:14;8.35;;;3.25;;
84351;SDS011;75904;43.524;1.518;2024-01-30T18:37:40;11.32;;;3.42;;
84351;SDS011;75904;43.524;1.518;2024-01-30T18:40:05;8.98;;;3.25;;
84351;SDS011;75904;43.524;1.518;2024-01-30T18:42:31;9.52;;;3.20;;
84351;SDS011;75904;43.524;1.518;2024-01-30T18:44:57;7.70;;;3.08;;
84351;SDS011;75904;43.524;1.518;2024-01-30T18:47:22;9.60;;;3.20;;
84351;SDS011;75904;43.524;1.518;2024-01-30T18:49:48;8.10;;;3.35;;
84351;SDS011;75904;43.524;1.518;2024-01-30T18:52:16;7.68;;;3.70;;
84351;SDS011;75904;43.524;1.518;2024-01-30T18:54:42;10.55;;;2.80;;
84351;SDS011;75904;43.524;1.518;2024-01-30T18:57:07;7.68;;;3.13;;
84351;SDS011;75904;43.524;1.518;2024-01-30T18:59:32;9.90;;;3.67;;
84351;SDS011;75904;43.524;1.518;2024-01-30T19:01:58;10.30;;;3.35;;
84351;SDS011;75904;43.524;1.518;2024-01-30T19:04:23;7.47;;;2.85;;
84351;SDS011;75904;43.524;1.518;2024-01-30T19:06:48;10.13;;;3.13;;
84351;SDS011;75904;43.524;1.518;2024-01-30T19:09:16;7.05;;;2.88;;
84351;SDS011;75904;43.524;1.518;2024-01-30T19:11:43;9.00;;;2.85;;
84351;SDS011;75904;43.524;1.518;2024-01-30T19:14:08;7.82;;;3.10;;
84351;SDS011;75904;43.524;1.518;2024-01-30T19:16:34;7.85;;;2.90;;
84351;SDS011;75904;43.524;1.518;2024-01-30T19:19:00;11.50;;;3.00;;
84351;SDS011;75904;43.524;1.518;2024-01-30T19:21:30;7.68;;;2.70;;
84351;SDS011;75904;43.524;1.518;2024-01-30T19:23:55;9.65;;;3.40;;
84351;SDS011;75904;43.524;1.518;2024-01-30T19:26:24;7.72;;;3.03;;
84351;SDS011;75904;43.524;1.518;2024-01-30T19:28:49;10.13;;;2.90;;
84351;SDS011;75904;43.524;1.518;2024-01-30T19:31:16;8.88;;;3.50;;
84351;SDS011;75904;43.524;1.518;2024-01-30T19:33:41;7.97;;;2.60;;
84351;SDS011;75904;43.524;1.518;2024-01-30T19:36:07;7.43;;;2.72;;
84351;SDS011;75904;43.524;1.518;2024-01-30T19:38:33;7.25;;;3.47;;
84351;SDS011;75904;43.524;1.518;2024-01-30T19:40:58;6.93;;;3.00;;
84351;SDS011;75904;43.524;1.518;2024-01-30T19:43:24;8.75;;;3.20;;
84351;SDS011;75904;43.524;1.518;2024-01-30T19:45:50;8.10;;;3.22;;
84351;SDS011;75904;43.524;1.518;2024-01-30T19:48:15;8.75;;;2.92;;
84351;SDS011;75904;43.524;1.518;2024-01-30T19:50:41;7.60;;;3.15;;
84351;SDS011;75904;43.524;1.518;2024-01-30T19:53:06;9.43;;;3.60;;
84351;SDS011;75904;43.524;1.518;2024-01-30T19:55:32;7.60;;;3.30;;
84351;SDS011;75904;43.524;1.518;2024-01-30T19:57:57;8.00;;;2.88;;
84351;SDS011;75904;43.524;1.518;2024-01-30T20:00:23;5.63;;;2.97;;
84351;SDS011;75904;43.524;1.518;2024-01-30T20:02:48;9.90;;;3.35;;
84351;SDS011;75904;43.524;1.518;2024-01-30T20:05:13;9.02;;;3.05;;
84351;SDS011;75904;43.524;1.518;2024-01-30T20:07:41;7.00;;;2.95;;
84351;SDS011;75904;43.524;1.518;2024-01-30T20:10:06;6.70;;;3.15;;
84351;SDS011;75904;43.524;1.518;2024-01-30T20:12:32;10.18;;;3.70;;
84351;SDS011;75904;43.524;1.518;2024-01-30T20:14:57;10.02;;;3.50;;
84351;SDS011;75904;43.524;1.518;2024-01-30T20:17:23;9.15;;;3.42;;
84351;SDS011;75904;43.524;1.518;2024-01-30T20:19:49;10.35;;;3.63;;
84351;SDS011;75904;43.524;1.518;2024-01-30T20:22:17;10.13;;;3.47;;
84351;SDS011;75904;43.524;1.518;2024-01-30T20:24:43;8.63;;;3.50;;
84351;SDS011;75904;43.524;1.518;2024-01-30T20:27:09;11.15;;;3.40;;
84351;SDS011;75904;43.524;1.518;2024-01-30T20:29:34;9.48;;;3.58;;
84351;SDS011;75904;43.524;1.518;2024-01-30T20:32:01;9.05;;;2.95;;
84351;SDS011;75904;43.524;1.518;2024-01-30T20:34:27;10.73;;;3.38;;
84351;SDS011;75904;43.524;1.518;2024-01-30T20:36:52;9.35;;;3.30;;
84351;SDS011;75904;43.524;1.518;2024-01-30T20:39:18;10.27;;;3.75;;
84351;SDS011;75904;43.524;1.518;2024-01-30T20:41:44;11.35;;;3.92;;
84351;SDS011;75904;43.524;1.518;2024-01-30T20:44:10;9.68;;;3.47;;
84351;SDS011;75904;43.524;1.518;2024-01-30T20:46:38;8.73;;;3.38;;
84351;SDS011;75904;43.524;1.518;2024-01-30T20:49:04;9.88;;;3.28;;
84351;SDS011;75904;43.524;1.518;2024-01-30T20:51:30;8.35;;;3.28;;
84351;SDS011;75904;43.524;1.518;2024-01-30T20:53:55;8.93;;;3.38;;
84351;SDS011;75904;43.524;1.518;2024-01-30T20:56:21;10.23;;;3.33;;
84351;SDS011;75904;43.524;1.518;2024-01-30T20:58:46;7.90;;;3.47;;
84351;SDS011;75904;43.524;1.518;2024-01-30T21:01:12;9.65;;;3.92;;
84351;SDS011;75904;43.524;1.518;2024-01-30T21:03:37;10.57;;;3.72;;
84351;SDS011;75904;43.524;1.518;2024-01-30T21:06:04;8.90;;;3.63;;
84351;SDS011;75904;43.524;1.518;2024-01-30T21:08:29;7.72;;;3.42;;
84351;SDS011;75904;43.524;1.518;2024-01-30T21:10:54;5.75;;;3.22;;
84351;SDS011;75904;43.524;1.518;2024-01-30T21:13:20;8.15;;;3.50;;
84351;SDS011;75904;43.524;1.518;2024-01-30T21:15:46;8.80;;;3.65;;
84351;SDS011;75904;43.524;1.518;2024-01-30T21:18:11;6.20;;;3.35;;
84351;SDS011;75904;43.524;1.518;2024-01-30T21:20:39;8.52;;;4.13;;
84351;SDS011;75904;43.524;1.518;2024-01-30T21:23:05;8.30;;;3.78;;
84351;SDS011;75904;43.524;1.518;2024-01-30T21:25:32;9.25;;;4.03;;
84351;SDS011;75904;43.524;1.518;2024-01-30T21:27:57;10.00;;;3.65;;
84351;SDS011;75904;43.524;1.518;2024-01-30T21:30:22;9.23;;;3.63;;
84351;SDS011;75904;43.524;1.518;2024-01-30T21:32:49;10.10;;;3.80;;
84351;SDS011;75904;43.524;1.518;2024-01-30T21:35:14;9.50;;;3.70;;
84351;SDS011;75904;43.524;1.518;2024-01-30T21:37:39;8.25;;;3.70;;
84351;SDS011;75904;43.524;1.518;2024-01-30T21:40:08;8.93;;;3.90;;
84351;SDS011;75904;43.524;1.518;2024-01-30T21:42:35;8.32;;;3.97;;
84351;SDS011;75904;43.524;1.518;2024-01-30T21:45:01;6.80;;;3.60;;
84351;SDS011;75904;43.524;1.518;2024-01-30T21:47:27;9.77;;;4.35;;
84351;SDS011;75904;43.524;1.518;2024-01-30T21:49:54;9.57;;;4.00;;
84351;SDS011;75904;43.524;1.518;2024-01-30T21:52:19;10.63;;;4.32;;
84351;SDS011;75904;43.524;1.518;2024-01-30T21:54:45;10.00;;;4.38;;
84351;SDS011;75904;43.524;1.518;2024-01-30T21:57:11;10.57;;;4.97;;
84351;SDS011;75904;43.524;1.518;2024-01-30T21:59:36;10.68;;;4.15;;
84351;SDS011;75904;43.524;1.518;2024-01-30T22:02:02;11.40;;;4.30;;
84351;SDS011;75904;43.524;1.518;2024-01-30T22:04:29;13.02;;;4.85;;
84351;SDS011;75904;43.524;1.518;2024-01-30T22:06:54;11.07;;;4.57;;
84351;SDS011;75904;43.524;1.518;2024-01-30T22:09:19;9.75;;;4.28;;
84351;SDS011;75904;43.524;1.518;2024-01-30T22:11:47;12.88;;;4.68;;
84351;SDS011;75904;43.524;1.518;2024-01-30T22:14:12;13.82;;;5.30;;
84351;SDS011;75904;43.524;1.518;2024-01-30T22:16:37;10.60;;;5.03;;
84351;SDS011;75904;43.524;1.518;2024-01-30T22:19:03;8.63;;;4.85;;
84351;SDS011;75904;43.524;1.518;2024-01-30T22:21:28;13.25;;;5.13;;
84351;SDS011;75904;43.524;1.518;2024-01-30T22:23:53;8.73;;;4.35;;
84351;SDS011;75904;43.524;1.518;2024-01-30T22:26:19;10.50;;;4.65;;
84351;SDS011;75904;43.524;1.518;2024-01-30T22:28:44;9.98;;;4.60;;
84351;SDS011;75904;43.524;1.518;2024-01-30T22:31:09;11.23;;;5.15;;
84351;SDS011;75904;43.524;1.518;2024-01-30T22:33:35;10.43;;;5.03;;
84351;SDS011;75904;43.524;1.518;2024-01-30T22:36:00;11.57;;;5.00;;
84351;SDS011;75904;43.524;1.518;2024-01-30T22:38:26;10.80;;;4.38;;
84351;SDS011;75904;43.524;1.518;2024-01-30T22:40:52;10.68;;;4.63;;
84351;SDS011;75904;43.524;1.518;2024-01-30T22:43:17;11.02;;;4.60;;
84351;SDS011;75904;43.524;1.518;2024-01-30T22:45:43;8.68;;;4.65;;
84351;SDS011;75904;43.524;1.518;2024-01-30T22:48:08;9.65;;;4.43;;
84351;SDS011;75904;43.524;1.518;2024-01-30T22:50:34;9.88;;;5.03;;
84351;SDS011;75904;43.524;1.518;2024-01-30T22:52:59;9.73;;;4.32;;
84351;SDS011;75904;43.524;1.518;2024-01-30T22:55:24;9.40;;;4.28;;
84351;SDS011;75904;43.524;1.518;2024-01-30T22:57:51;10.65;;;4.13;;
84351;SDS011;75904;43.524;1.518;2024-01-30T23:00:17;9.65;;;4.65;;
84351;SDS011;75904;43.524;1.518;2024-01-30T23:02:50;7.78;;;4.22;;
84351;SDS011;75904;43.524;1.518;2024-01-30T23:05:18;10.98;;;4.50;;
84351;SDS011;75904;43.524;1.518;2024-01-30T23:07:44;8.52;;;4.20;;
84351;SDS011;75904;43.524;1.518;2024-01-30T23:10:10;9.15;;;4.60;;
84351;SDS011;75904;43.524;1.518;2024-01-30T23:12:36;8.05;;;4.50;;
84351;SDS011;75904;43.524;1.518;2024-01-30T23:15:02;11.45;;;4.35;;
84351;SDS011;75904;43.524;1.518;2024-01-30T23:17:28;10.60;;;3.83;;
84351;SDS011;75904;43.524;1.518;2024-01-30T23:19:54;9.45;;;3.90;;
84351;SDS011;75904;43.524;1.518;2024-01-30T23:22:20;11.38;;;4.53;;
84351;SDS011;75904;43.524;1.518;2024-01-30T23:24:45;7.85;;;3.75;;
84351;SDS011;75904;43.524;1.518;2024-01-30T23:27:11;13.90;;;4.95;;
84351;SDS011;75904;43.524;1.518;2024-01-30T23:29:36;9.43;;;4.50;;
84351;SDS011;75904;43.524;1.518;2024-01-30T23:32:02;8.10;;;4.22;;
84351;SDS011;75904;43.524;1.518;2024-01-30T23:34:27;7.50;;;4.07;;
84351;SDS011;75904;43.524;1.518;2024-01-30T23:36:52;11.02;;;4.32;;
84351;SDS011;75904;43.524;1.518;2024-01-30T23:39:18;10.52;;;4.13;;
84351;SDS011;75904;43.524;1.518;2024-01-30T23:41:43;7.55;;;4.18;;
84351;SDS011;75904;43.524;1.518;2024-01-30T23:44:09;9.18;;;4.15;;
84351;SDS011;75904;43.524;1.518;2024-01-30T23:46:34;7.65;;;3.75;;
84351;SDS011;75904;43.524;1.518;2024-01-30T23:49:00;9.32;;;4.32;;
84351;SDS011;75904;43.524;1.518;2024-01-30T23:51:25;9.38;;;3.78;;
84351;SDS011;75904;43.524;1.518;2024-01-30T23:53:50;10.30;;;4.43;;
84351;SDS011;75904;43.524;1.518;2024-01-30T23:56:16;8.85;;;3.80;;
84351;SDS011;75904;43.524;1.518;2024-01-30T23:58:41;7.97;;;3.80;;
